sensor_id;sensor_type;location;lat;lon;timestamp;P1;durP1;ratioP1;P2;durP2;ratioP2
7605;SDS011;3844;53.360;9.738;2023-03-16T00:01:35;10.77;;;4.50;;
7605;SDS011;3844;53.360;9.738;2023-03-16T00:03:36;11.30;;;4.35;;
7605;SDS011;3844;53.360;9.738;2023-03-16T00:05:37;10.88;;;4.15;;
7605;SDS011;3844;53.360;9.738;2023-03-16T00:07:37;13.45;;;4.63;;
7605;SDS011;3844;53.360;9.738;2023-03-16T00:09:38;9.60;;;4.20;;
7605;SDS011;3844;53.360;9.738;2023-03-16T00:11:40;10.73;;;4.47;;
7605;SDS011;3844;53.360;9.738;2023-03-16T00:13:41;12.10;;;4.45;;
7605;SDS011;3844;53.360;9.738;2023-03-16T00:15:49;11.38;;;4.47;;
7605;SDS011;3844;53.360;9.738;2023-03-16T00:17:50;12.45;;;4.32;;
7605;SDS011;3844;53.360;9.738;2023-03-16T00:19:52;12.68;;;4.55;;
7605;SDS011;3844;53.360;9.738;2023-03-16T00:21:54;12.65;;;4.47;;
7605;SDS011;3844;53.360;9.738;2023-03-16T00:23:55;10.93;;;4.80;;
7605;SDS011;3844;53.360;9.738;2023-03-16T00:25:56;13.00;;;4.57;;
7605;SDS011;3844;53.360;9.738;2023-03-16T00:27:58;12.27;;;4.55;;
7605;SDS011;3844;53.360;9.738;2023-03-16T00:30:02;12.13;;;4.18;;
7605;SDS011;3844;53.360;9.738;2023-03-16T00:32:03;11.20;;;4.30;;
7605;SDS011;3844;53.360;9.738;2023-03-16T00:34:04;12.88;;;4.72;;
7605;SDS011;3844;53.360;9.738;2023-03-16T00:36:05;11.43;;;4.47;;
7605;SDS011;3844;53.360;9.738;2023-03-16T00:38:08;11.18;;;3.75;;
7605;SDS011;3844;53.360;9.738;2023-03-16T00:40:09;11.68;;;3.95;;
7605;SDS011;3844;53.360;9.738;2023-03-16T00:42:12;12.23;;;3.95;;
7605;SDS011;3844;53.360;9.738;2023-03-16T00:44:14;8.63;;;3.70;;
7605;SDS011;3844;53.360;9.738;2023-03-16T00:46:15;10.40;;;4.20;;
7605;SDS011;3844;53.360;9.738;2023-03-16T00:48:17;10.68;;;3.95;;
7605;SDS011;3844;53.360;9.738;2023-03-16T00:50:20;12.60;;;3.85;;
7605;SDS011;3844;53.360;9.738;2023-03-16T00:52:21;10.68;;;3.58;;
7605;SDS011;3844;53.360;9.738;2023-03-16T00:54:22;11.45;;;3.38;;
7605;SDS011;3844;53.360;9.738;2023-03-16T00:56:23;10.27;;;3.58;;
7605;SDS011;3844;53.360;9.738;2023-03-16T00:58:23;10.23;;;3.42;;
7605;SDS011;3844;53.360;9.738;2023-03-16T01:00:24;8.43;;;3.58;;
7605;SDS011;3844;53.360;9.738;2023-03-16T01:02:27;11.40;;;3.35;;
7605;SDS011;3844;53.360;9.738;2023-03-16T01:04:27;9.40;;;3.75;;
7605;SDS011;3844;53.360;9.738;2023-03-16T01:06:28;12.80;;;3.60;;
7605;SDS011;3844;53.360;9.738;2023-03-16T01:08:29;10.23;;;3.42;;
7605;SDS011;3844;53.360;9.738;2023-03-16T01:10:32;8.97;;;3.50;;
7605;SDS011;3844;53.360;9.738;2023-03-16T01:12:36;10.43;;;3.45;;
7605;SDS011;3844;53.360;9.738;2023-03-16T01:14:38;11.30;;;3.55;;
7605;SDS011;3844;53.360;9.738;2023-03-16T01:16:39;10.63;;;3.35;;
7605;SDS011;3844;53.360;9.738;2023-03-16T01:18:40;9.57;;;3.45;;
7605;SDS011;3844;53.360;9.738;2023-03-16T01:20:40;14.15;;;3.80;;
7605;SDS011;3844;53.360;9.738;2023-03-16T01:22:49;11.60;;;3.92;;
7605;SDS011;3844;53.360;9.738;2023-03-16T01:24:50;10.50;;;3.80;;
7605;SDS011;3844;53.360;9.738;2023-03-16T01:26:50;9.60;;;3.22;;
7605;SDS011;3844;53.360;9.738;2023-03-16T01:28:51;12.38;;;3.63;;
7605;SDS011;3844;53.360;9.738;2023-03-16T01:30:54;12.43;;;3.35;;
7605;SDS011;3844;53.360;9.738;2023-03-16T01:32:59;8.57;;;3.20;;
7605;SDS011;3844;53.360;9.738;2023-03-16T01:35:00;10.73;;;3.55;;
7605;SDS011;3844;53.360;9.738;2023-03-16T01:37:01;9.55;;;3.25;;
7605;SDS011;3844;53.360;9.738;2023-03-16T01:39:02;6.57;;;3.00;;
7605;SDS011;3844;53.360;9.738;2023-03-16T01:41:04;8.90;;;3.25;;
7605;SDS011;3844;53.360;9.738;2023-03-16T01:43:06;9.90;;;3.00;;
7605;SDS011;3844;53.360;9.738;2023-03-16T01:47:48;11.25;;;3.20;;
7605;SDS011;3844;53.360;9.738;2023-03-16T01:49:50;11.40;;;3.05;;
7605;SDS011;3844;53.360;9.738;2023-03-16T01:51:59;8.02;;;3.00;;
7605;SDS011;3844;53.360;9.738;2023-03-16T01:54:34;9.93;;;2.85;;
7605;SDS011;3844;53.360;9.738;2023-03-16T01:59:13;9.70;;;2.70;;
7605;SDS011;3844;53.360;9.738;2023-03-16T02:01:16;7.55;;;2.70;;
7605;SDS011;3844;53.360;9.738;2023-03-16T02:03:17;6.68;;;2.65;;
7605;SDS011;3844;53.360;9.738;2023-03-16T02:05:22;7.25;;;2.83;;
7605;SDS011;3844;53.360;9.738;2023-03-16T02:07:28;7.40;;;2.70;;
7605;SDS011;3844;53.360;9.738;2023-03-16T02:09:36;12.75;;;3.13;;
7605;SDS011;3844;53.360;9.738;2023-03-16T02:11:41;8.52;;;2.80;;
7605;SDS011;3844;53.360;9.738;2023-03-16T02:13:43;8.23;;;2.90;;
7605;SDS011;3844;53.360;9.738;2023-03-16T02:15:45;8.53;;;2.87;;
7605;SDS011;3844;53.360;9.738;2023-03-16T02:17:46;8.15;;;3.00;;
7605;SDS011;3844;53.360;9.738;2023-03-16T02:21:51;7.45;;;2.70;;
7605;SDS011;3844;53.360;9.738;2023-03-16T02:24:06;8.52;;;2.60;;
7605;SDS011;3844;53.360;9.738;2023-03-16T02:26:13;9.75;;;3.00;;
7605;SDS011;3844;53.360;9.738;2023-03-16T02:30:24;7.25;;;2.88;;
7605;SDS011;3844;53.360;9.738;2023-03-16T02:32:25;7.85;;;2.80;;
7605;SDS011;3844;53.360;9.738;2023-03-16T02:34:28;5.80;;;1.77;;
7605;SDS011;3844;53.360;9.738;2023-03-16T02:36:29;7.88;;;2.75;;
7605;SDS011;3844;53.360;9.738;2023-03-16T02:38:32;7.18;;;2.55;;
7605;SDS011;3844;53.360;9.738;2023-03-16T02:40:33;9.10;;;2.80;;
7605;SDS011;3844;53.360;9.738;2023-03-16T02:42:35;7.70;;;2.97;;
7605;SDS011;3844;53.360;9.738;2023-03-16T02:44:35;9.80;;;3.00;;
7605;SDS011;3844;53.360;9.738;2023-03-16T02:46:39;10.45;;;2.95;;
7605;SDS011;3844;53.360;9.738;2023-03-16T02:48:57;10.57;;;2.92;;
7605;SDS011;3844;53.360;9.738;2023-03-16T02:50:58;6.78;;;2.75;;
7605;SDS011;3844;53.360;9.738;2023-03-16T02:52:59;7.30;;;2.72;;
7605;SDS011;3844;53.360;9.738;2023-03-16T02:55:00;10.48;;;2.80;;
7605;SDS011;3844;53.360;9.738;2023-03-16T02:57:01;8.60;;;2.90;;
7605;SDS011;3844;53.360;9.738;2023-03-16T02:59:04;9.25;;;2.70;;
7605;SDS011;3844;53.360;9.738;2023-03-16T03:01:05;8.27;;;2.63;;
7605;SDS011;3844;53.360;9.738;2023-03-16T03:03:05;7.40;;;2.80;;
7605;SDS011;3844;53.360;9.738;2023-03-16T03:05:09;9.95;;;2.88;;
7605;SDS011;3844;53.360;9.738;2023-03-16T03:07:11;8.93;;;2.47;;
7605;SDS011;3844;53.360;9.738;2023-03-16T03:09:13;7.65;;;2.60;;
7605;SDS011;3844;53.360;9.738;2023-03-16T03:11:13;9.15;;;2.70;;
7605;SDS011;3844;53.360;9.738;2023-03-16T03:13:14;9.45;;;2.60;;
7605;SDS011;3844;53.360;9.738;2023-03-16T03:15:15;10.10;;;3.08;;
7605;SDS011;3844;53.360;9.738;2023-03-16T03:17:17;7.55;;;2.70;;
7605;SDS011;3844;53.360;9.738;2023-03-16T03:19:18;8.23;;;2.92;;
7605;SDS011;3844;53.360;9.738;2023-03-16T03:21:19;8.57;;;2.40;;
7605;SDS011;3844;53.360;9.738;2023-03-16T03:23:20;6.40;;;2.38;;
7605;SDS011;3844;53.360;9.738;2023-03-16T03:25:21;10.98;;;2.70;;
7605;SDS011;3844;53.360;9.738;2023-03-16T03:27:22;11.13;;;2.80;;
7605;SDS011;3844;53.360;9.738;2023-03-16T03:29:23;8.93;;;2.45;;
7605;SDS011;3844;53.360;9.738;2023-03-16T03:31:24;9.05;;;2.80;;
7605;SDS011;3844;53.360;9.738;2023-03-16T03:33:25;7.43;;;2.50;;
7605;SDS011;3844;53.360;9.738;2023-03-16T03:35:26;9.93;;;2.78;;
7605;SDS011;3844;53.360;9.738;2023-03-16T03:37:27;8.77;;;2.70;;
7605;SDS011;3844;53.360;9.738;2023-03-16T03:39:28;9.50;;;2.95;;
7605;SDS011;3844;53.360;9.738;2023-03-16T03:41:29;7.95;;;2.50;;
7605;SDS011;3844;53.360;9.738;2023-03-16T03:43:31;8.32;;;2.70;;
7605;SDS011;3844;53.360;9.738;2023-03-16T03:45:32;7.32;;;2.53;;
7605;SDS011;3844;53.360;9.738;2023-03-16T03:47:33;7.93;;;2.53;;
7605;SDS011;3844;53.360;9.738;2023-03-16T03:49:34;7.57;;;2.38;;
7605;SDS011;3844;53.360;9.738;2023-03-16T03:51:34;5.80;;;2.50;;
7605;SDS011;3844;53.360;9.738;2023-03-16T03:53:35;8.00;;;2.42;;
7605;SDS011;3844;53.360;9.738;2023-03-16T03:55:36;10.65;;;2.75;;
7605;SDS011;3844;53.360;9.738;2023-03-16T03:57:37;7.28;;;2.75;;
7605;SDS011;3844;53.360;9.738;2023-03-16T03:59:38;6.72;;;2.67;;
7605;SDS011;3844;53.360;9.738;2023-03-16T04:01:42;7.68;;;2.63;;
7605;SDS011;3844;53.360;9.738;2023-03-16T04:03:43;7.97;;;2.80;;
7605;SDS011;3844;53.360;9.738;2023-03-16T04:05:44;9.15;;;2.40;;
7605;SDS011;3844;53.360;9.738;2023-03-16T04:07:45;10.77;;;2.75;;
7605;SDS011;3844;53.360;9.738;2023-03-16T04:09:45;8.05;;;3.03;;
7605;SDS011;3844;53.360;9.738;2023-03-16T04:11:46;9.25;;;2.75;;
7605;SDS011;3844;53.360;9.738;2023-03-16T04:13:49;9.48;;;2.97;;
7605;SDS011;3844;53.360;9.738;2023-03-16T04:15:57;9.98;;;2.60;;
7605;SDS011;3844;53.360;9.738;2023-03-16T04:17:59;7.35;;;2.55;;
7605;SDS011;3844;53.360;9.738;2023-03-16T04:20:00;10.43;;;2.90;;
7605;SDS011;3844;53.360;9.738;2023-03-16T04:22:05;8.63;;;2.72;;
7605;SDS011;3844;53.360;9.738;2023-03-16T04:24:06;7.68;;;2.35;;
7605;SDS011;3844;53.360;9.738;2023-03-16T04:26:07;7.93;;;2.53;;
7605;SDS011;3844;53.360;9.738;2023-03-16T04:28:08;7.43;;;2.72;;
7605;SDS011;3844;53.360;9.738;2023-03-16T04:30:11;7.38;;;2.67;;
7605;SDS011;3844;53.360;9.738;2023-03-16T04:32:13;7.93;;;2.60;;
7605;SDS011;3844;53.360;9.738;2023-03-16T04:34:15;8.38;;;2.58;;
7605;SDS011;3844;53.360;9.738;2023-03-16T04:36:15;7.78;;;2.90;;
7605;SDS011;3844;53.360;9.738;2023-03-16T04:38:16;8.02;;;2.60;;
7605;SDS011;3844;53.360;9.738;2023-03-16T04:40:17;6.85;;;2.47;;
7605;SDS011;3844;53.360;9.738;2023-03-16T04:42:18;8.30;;;2.50;;
7605;SDS011;3844;53.360;9.738;2023-03-16T04:44:19;6.63;;;2.40;;
7605;SDS011;3844;53.360;9.738;2023-03-16T04:46:20;7.55;;;2.50;;
7605;SDS011;3844;53.360;9.738;2023-03-16T04:48:20;7.65;;;2.53;;
7605;SDS011;3844;53.360;9.738;2023-03-16T04:50:21;7.70;;;2.50;;
7605;SDS011;3844;53.360;9.738;2023-03-16T04:52:21;7.40;;;2.50;;
7605;SDS011;3844;53.360;9.738;2023-03-16T04:54:22;7.35;;;2.53;;
7605;SDS011;3844;53.360;9.738;2023-03-16T04:56:23;8.98;;;2.70;;
7605;SDS011;3844;53.360;9.738;2023-03-16T04:58:23;6.95;;;2.70;;
7605;SDS011;3844;53.360;9.738;2023-03-16T05:00:24;8.15;;;2.85;;
7605;SDS011;3844;53.360;9.738;2023-03-16T05:02:25;9.30;;;2.42;;
7605;SDS011;3844;53.360;9.738;2023-03-16T05:04:26;6.63;;;2.50;;
7605;SDS011;3844;53.360;9.738;2023-03-16T05:06:27;6.85;;;2.50;;
7605;SDS011;3844;53.360;9.738;2023-03-16T05:08:28;8.98;;;2.60;;
7605;SDS011;3844;53.360;9.738;2023-03-16T05:10:29;8.38;;;2.80;;
7605;SDS011;3844;53.360;9.738;2023-03-16T05:12:29;8.85;;;2.75;;
7605;SDS011;3844;53.360;9.738;2023-03-16T05:14:30;8.88;;;2.53;;
7605;SDS011;3844;53.360;9.738;2023-03-16T05:16:31;9.68;;;2.70;;
7605;SDS011;3844;53.360;9.738;2023-03-16T05:18:32;6.55;;;2.53;;
7605;SDS011;3844;53.360;9.738;2023-03-16T05:20:32;7.78;;;2.72;;
7605;SDS011;3844;53.360;9.738;2023-03-16T05:22:33;6.78;;;2.22;;
7605;SDS011;3844;53.360;9.738;2023-03-16T05:24:34;7.13;;;2.90;;
7605;SDS011;3844;53.360;9.738;2023-03-16T05:26:36;9.30;;;2.97;;
7605;SDS011;3844;53.360;9.738;2023-03-16T05:28:37;8.30;;;2.90;;
7605;SDS011;3844;53.360;9.738;2023-03-16T05:30:39;8.95;;;2.90;;
7605;SDS011;3844;53.360;9.738;2023-03-16T05:32:41;9.00;;;3.10;;
7605;SDS011;3844;53.360;9.738;2023-03-16T05:34:42;9.27;;;2.78;;
7605;SDS011;3844;53.360;9.738;2023-03-16T05:36:43;10.65;;;3.10;;
7605;SDS011;3844;53.360;9.738;2023-03-16T05:38:44;8.38;;;2.88;;
7605;SDS011;3844;53.360;9.738;2023-03-16T05:40:46;7.43;;;2.97;;
7605;SDS011;3844;53.360;9.738;2023-03-16T05:42:55;9.20;;;2.78;;
7605;SDS011;3844;53.360;9.738;2023-03-16T05:44:56;8.25;;;2.50;;
7605;SDS011;3844;53.360;9.738;2023-03-16T05:46:59;10.30;;;2.70;;
7605;SDS011;3844;53.360;9.738;2023-03-16T05:49:01;9.85;;;2.83;;
7605;SDS011;3844;53.360;9.738;2023-03-16T05:51:02;9.27;;;2.72;;
7605;SDS011;3844;53.360;9.738;2023-03-16T05:55:08;5.28;;;2.20;;
7605;SDS011;3844;53.360;9.738;2023-03-16T05:57:09;11.45;;;2.60;;
7605;SDS011;3844;53.360;9.738;2023-03-16T05:59:10;6.90;;;2.58;;
7605;SDS011;3844;53.360;9.738;2023-03-16T06:01:11;8.25;;;2.40;;
7605;SDS011;3844;53.360;9.738;2023-03-16T06:03:12;8.35;;;2.50;;
7605;SDS011;3844;53.360;9.738;2023-03-16T06:05:13;7.70;;;2.47;;
7605;SDS011;3844;53.360;9.738;2023-03-16T06:07:14;8.05;;;2.53;;
7605;SDS011;3844;53.360;9.738;2023-03-16T06:09:15;6.15;;;2.75;;
7605;SDS011;3844;53.360;9.738;2023-03-16T06:11:15;6.40;;;2.60;;
7605;SDS011;3844;53.360;9.738;2023-03-16T06:13:17;5.78;;;2.33;;
7605;SDS011;3844;53.360;9.738;2023-03-16T06:15:17;6.93;;;2.40;;
7605;SDS011;3844;53.360;9.738;2023-03-16T06:17:18;8.45;;;2.42;;
7605;SDS011;3844;53.360;9.738;2023-03-16T06:19:19;6.57;;;2.30;;
7605;SDS011;3844;53.360;9.738;2023-03-16T06:21:21;7.93;;;2.70;;
7605;SDS011;3844;53.360;9.738;2023-03-16T06:23:22;7.38;;;2.30;;
7605;SDS011;3844;53.360;9.738;2023-03-16T06:25:23;9.18;;;2.90;;
7605;SDS011;3844;53.360;9.738;2023-03-16T06:27:23;9.10;;;3.40;;
7605;SDS011;3844;53.360;9.738;2023-03-16T06:29:25;7.57;;;2.60;;
7605;SDS011;3844;53.360;9.738;2023-03-16T06:31:26;9.05;;;2.78;;
7605;SDS011;3844;53.360;9.738;2023-03-16T06:33:27;7.35;;;2.53;;
7605;SDS011;3844;53.360;9.738;2023-03-16T06:35:27;7.20;;;2.40;;
7605;SDS011;3844;53.360;9.738;2023-03-16T06:37:28;7.10;;;2.33;;
7605;SDS011;3844;53.360;9.738;2023-03-16T06:39:30;6.15;;;2.22;;
7605;SDS011;3844;53.360;9.738;2023-03-16T06:41:31;7.43;;;2.50;;
7605;SDS011;3844;53.360;9.738;2023-03-16T06:43:31;7.60;;;2.42;;
7605;SDS011;3844;53.360;9.738;2023-03-16T06:45:32;9.10;;;2.78;;
7605;SDS011;3844;53.360;9.738;2023-03-16T06:47:33;9.15;;;2.40;;
7605;SDS011;3844;53.360;9.738;2023-03-16T06:49:34;6.85;;;2.60;;
7605;SDS011;3844;53.360;9.738;2023-03-16T06:51:35;8.98;;;3.25;;
7605;SDS011;3844;53.360;9.738;2023-03-16T06:53:36;8.73;;;2.83;;
7605;SDS011;3844;53.360;9.738;2023-03-16T06:55:36;5.82;;;2.35;;
7605;SDS011;3844;53.360;9.738;2023-03-16T06:57:37;7.20;;;2.47;;
7605;SDS011;3844;53.360;9.738;2023-03-16T06:59:38;9.50;;;2.85;;
7605;SDS011;3844;53.360;9.738;2023-03-16T07:01:39;7.95;;;2.60;;
7605;SDS011;3844;53.360;9.738;2023-03-16T07:03:41;5.93;;;2.38;;
7605;SDS011;3844;53.360;9.738;2023-03-16T07:05:41;6.53;;;2.30;;
7605;SDS011;3844;53.360;9.738;2023-03-16T07:07:42;7.50;;;2.25;;
7605;SDS011;3844;53.360;9.738;2023-03-16T07:09:44;7.07;;;2.15;;
7605;SDS011;3844;53.360;9.738;2023-03-16T07:11:45;10.10;;;2.40;;
7605;SDS011;3844;53.360;9.738;2023-03-16T07:13:45;5.47;;;1.90;;
7605;SDS011;3844;53.360;9.738;2023-03-16T07:15:49;5.95;;;2.00;;
7605;SDS011;3844;53.360;9.738;2023-03-16T07:17:51;8.18;;;2.47;;
7605;SDS011;3844;53.360;9.738;2023-03-16T07:19:52;7.22;;;2.35;;
7605;SDS011;3844;53.360;9.738;2023-03-16T07:21:53;8.95;;;2.28;;
7605;SDS011;3844;53.360;9.738;2023-03-16T07:23:54;7.18;;;2.20;;
7605;SDS011;3844;53.360;9.738;2023-03-16T07:25:54;5.65;;;1.95;;
7605;SDS011;3844;53.360;9.738;2023-03-16T07:27:55;8.10;;;2.13;;
7605;SDS011;3844;53.360;9.738;2023-03-16T07:29:56;7.65;;;2.40;;
7605;SDS011;3844;53.360;9.738;2023-03-16T07:31:58;6.53;;;2.03;;
7605;SDS011;3844;53.360;9.738;2023-03-16T07:33:59;7.30;;;2.00;;
7605;SDS011;3844;53.360;9.738;2023-03-16T07:36:01;7.72;;;2.20;;
7605;SDS011;3844;53.360;9.738;2023-03-16T07:38:05;8.60;;;2.00;;
7605;SDS011;3844;53.360;9.738;2023-03-16T07:40:06;7.38;;;2.00;;
7605;SDS011;3844;53.360;9.738;2023-03-16T07:42:08;8.85;;;2.15;;
7605;SDS011;3844;53.360;9.738;2023-03-16T07:44:09;9.43;;;1.95;;
7605;SDS011;3844;53.360;9.738;2023-03-16T07:46:10;8.60;;;1.90;;
7605;SDS011;3844;53.360;9.738;2023-03-16T07:50:15;7.82;;;1.73;;
7605;SDS011;3844;53.360;9.738;2023-03-16T07:52:18;7.43;;;2.00;;
7605;SDS011;3844;53.360;9.738;2023-03-16T07:54:18;5.57;;;1.90;;
7605;SDS011;3844;53.360;9.738;2023-03-16T07:56:19;6.25;;;1.73;;
7605;SDS011;3844;53.360;9.738;2023-03-16T07:58:20;7.50;;;1.90;;
7605;SDS011;3844;53.360;9.738;2023-03-16T08:00:21;8.18;;;1.95;;
7605;SDS011;3844;53.360;9.738;2023-03-16T08:02:23;6.18;;;2.05;;
7605;SDS011;3844;53.360;9.738;2023-03-16T08:04:24;8.77;;;2.15;;
7605;SDS011;3844;53.360;9.738;2023-03-16T08:06:25;7.35;;;2.05;;
7605;SDS011;3844;53.360;9.738;2023-03-16T08:08:26;7.43;;;1.80;;
7605;SDS011;3844;53.360;9.738;2023-03-16T08:10:26;7.20;;;1.80;;
7605;SDS011;3844;53.360;9.738;2023-03-16T08:12:28;6.47;;;1.90;;
7605;SDS011;3844;53.360;9.738;2023-03-16T08:14:29;7.47;;;2.00;;
7605;SDS011;3844;53.360;9.738;2023-03-16T08:16:33;5.93;;;1.80;;
7605;SDS011;3844;53.360;9.738;2023-03-16T08:18:34;9.57;;;2.03;;
7605;SDS011;3844;53.360;9.738;2023-03-16T08:20:35;7.72;;;1.77;;
7605;SDS011;3844;53.360;9.738;2023-03-16T08:22:36;6.97;;;1.73;;
7605;SDS011;3844;53.360;9.738;2023-03-16T08:24:37;7.90;;;2.13;;
7605;SDS011;3844;53.360;9.738;2023-03-16T08:26:38;6.85;;;1.92;;
7605;SDS011;3844;53.360;9.738;2023-03-16T08:28:39;6.30;;;1.80;;
7605;SDS011;3844;53.360;9.738;2023-03-16T08:30:44;8.02;;;2.13;;
7605;SDS011;3844;53.360;9.738;2023-03-16T08:32:46;6.15;;;1.70;;
7605;SDS011;3844;53.360;9.738;2023-03-16T08:34:46;8.85;;;1.92;;
7605;SDS011;3844;53.360;9.738;2023-03-16T08:36:47;7.47;;;1.90;;
7605;SDS011;3844;53.360;9.738;2023-03-16T08:38:48;4.72;;;1.42;;
7605;SDS011;3844;53.360;9.738;2023-03-16T08:40:51;10.40;;;1.95;;
7605;SDS011;3844;53.360;9.738;2023-03-16T08:42:51;7.15;;;1.77;;
7605;SDS011;3844;53.360;9.738;2023-03-16T08:44:53;7.57;;;1.75;;
7605;SDS011;3844;53.360;9.738;2023-03-16T08:46:54;7.28;;;1.75;;
7605;SDS011;3844;53.360;9.738;2023-03-16T08:48:55;6.15;;;1.70;;
7605;SDS011;3844;53.360;9.738;2023-03-16T08:50:56;6.85;;;1.58;;
7605;SDS011;3844;53.360;9.738;2023-03-16T08:52:57;4.93;;;1.58;;
7605;SDS011;3844;53.360;9.738;2023-03-16T08:54:58;6.38;;;1.52;;
7605;SDS011;3844;53.360;9.738;2023-03-16T08:56:59;6.57;;;1.75;;
7605;SDS011;3844;53.360;9.738;2023-03-16T08:59:00;4.68;;;1.38;;
7605;SDS011;3844;53.360;9.738;2023-03-16T09:01:01;6.65;;;1.30;;
7605;SDS011;3844;53.360;9.738;2023-03-16T09:03:05;5.85;;;1.33;;
7605;SDS011;3844;53.360;9.738;2023-03-16T09:05:10;5.18;;;1.20;;
7605;SDS011;3844;53.360;9.738;2023-03-16T09:07:12;6.28;;;1.50;;
7605;SDS011;3844;53.360;9.738;2023-03-16T09:09:13;6.13;;;1.30;;
7605;SDS011;3844;53.360;9.738;2023-03-16T09:11:16;5.95;;;1.50;;
7605;SDS011;3844;53.360;9.738;2023-03-16T09:13:21;4.70;;;1.10;;
7605;SDS011;3844;53.360;9.738;2023-03-16T09:15:21;4.55;;;1.38;;
7605;SDS011;3844;53.360;9.738;2023-03-16T09:17:22;6.88;;;1.30;;
7605;SDS011;3844;53.360;9.738;2023-03-16T09:19:23;4.35;;;1.27;;
7605;SDS011;3844;53.360;9.738;2023-03-16T09:21:24;6.88;;;1.45;;
7605;SDS011;3844;53.360;9.738;2023-03-16T09:23:24;5.18;;;1.25;;
7605;SDS011;3844;53.360;9.738;2023-03-16T09:25:26;5.93;;;1.20;;
7605;SDS011;3844;53.360;9.738;2023-03-16T09:27:27;7.00;;;1.40;;
7605;SDS011;3844;53.360;9.738;2023-03-16T09:29:27;5.07;;;1.23;;
7605;SDS011;3844;53.360;9.738;2023-03-16T09:31:28;7.38;;;1.50;;
7605;SDS011;3844;53.360;9.738;2023-03-16T09:33:29;4.97;;;1.08;;
7605;SDS011;3844;53.360;9.738;2023-03-16T09:35:33;6.18;;;1.40;;
7605;SDS011;3844;53.360;9.738;2023-03-16T09:37:35;4.32;;;1.10;;
7605;SDS011;3844;53.360;9.738;2023-03-16T09:39:36;6.38;;;1.48;;
7605;SDS011;3844;53.360;9.738;2023-03-16T09:44:02;5.30;;;1.30;;
7605;SDS011;3844;53.360;9.738;2023-03-16T09:46:30;5.10;;;1.20;;
7605;SDS011;3844;53.360;9.738;2023-03-16T09:48:35;5.32;;;1.40;;
7605;SDS011;3844;53.360;9.738;2023-03-16T09:50:38;4.03;;;1.00;;
7605;SDS011;3844;53.360;9.738;2023-03-16T09:52:43;6.03;;;1.20;;
7605;SDS011;3844;53.360;9.738;2023-03-16T09:55:19;5.93;;;1.27;;
7605;SDS011;3844;53.360;9.738;2023-03-16T09:57:29;4.88;;;1.30;;
7605;SDS011;3844;53.360;9.738;2023-03-16T09:59:34;7.55;;;1.52;;
7605;SDS011;3844;53.360;9.738;2023-03-16T10:06:24;3.20;;;1.00;;
7605;SDS011;3844;53.360;9.738;2023-03-16T10:08:29;5.07;;;1.00;;
7605;SDS011;3844;53.360;9.738;2023-03-16T10:12:57;5.93;;;1.20;;
7605;SDS011;3844;53.360;9.738;2023-03-16T10:17:20;4.78;;;1.00;;
7605;SDS011;3844;53.360;9.738;2023-03-16T10:19:53;4.40;;;1.00;;
7605;SDS011;3844;53.360;9.738;2023-03-16T10:21:59;4.40;;;1.10;;
7605;SDS011;3844;53.360;9.738;2023-03-16T10:26:36;4.70;;;1.00;;
7605;SDS011;3844;53.360;9.738;2023-03-16T10:28:43;5.72;;;1.00;;
7605;SDS011;3844;53.360;9.738;2023-03-16T10:30:46;4.72;;;1.10;;
7605;SDS011;3844;53.360;9.738;2023-03-16T10:32:49;3.80;;;1.00;;
7605;SDS011;3844;53.360;9.738;2023-03-16T10:34:57;4.22;;;1.00;;
7605;SDS011;3844;53.360;9.738;2023-03-16T10:37:11;3.95;;;1.10;;
7605;SDS011;3844;53.360;9.738;2023-03-16T10:39:13;3.78;;;0.90;;
7605;SDS011;3844;53.360;9.738;2023-03-16T10:43:19;3.17;;;0.95;;
7605;SDS011;3844;53.360;9.738;2023-03-16T10:45:25;3.28;;;1.00;;
7605;SDS011;3844;53.360;9.738;2023-03-16T10:47:30;6.10;;;1.10;;
7605;SDS011;3844;53.360;9.738;2023-03-16T10:49:36;4.07;;;0.63;;
7605;SDS011;3844;53.360;9.738;2023-03-16T10:51:41;4.75;;;0.98;;
7605;SDS011;3844;53.360;9.738;2023-03-16T10:53:42;4.93;;;1.10;;
7605;SDS011;3844;53.360;9.738;2023-03-16T10:55:44;6.38;;;1.08;;
7605;SDS011;3844;53.360;9.738;2023-03-16T10:57:47;4.82;;;1.00;;
7605;SDS011;3844;53.360;9.738;2023-03-16T10:59:53;3.72;;;0.90;;
7605;SDS011;3844;53.360;9.738;2023-03-16T11:01:56;5.07;;;0.93;;
7605;SDS011;3844;53.360;9.738;2023-03-16T11:03:57;3.50;;;0.98;;
7605;SDS011;3844;53.360;9.738;2023-03-16T11:06:02;5.93;;;1.10;;
7605;SDS011;3844;53.360;9.738;2023-03-16T11:10:30;4.95;;;1.23;;
7605;SDS011;3844;53.360;9.738;2023-03-16T11:12:35;3.97;;;0.95;;
7605;SDS011;3844;53.360;9.738;2023-03-16T11:14:36;3.53;;;1.00;;
7605;SDS011;3844;53.360;9.738;2023-03-16T11:18:40;5.65;;;1.05;;
7605;SDS011;3844;53.360;9.738;2023-03-16T11:20:53;3.67;;;1.00;;
7605;SDS011;3844;53.360;9.738;2023-03-16T11:22:54;3.67;;;1.00;;
7605;SDS011;3844;53.360;9.738;2023-03-16T11:27:00;4.85;;;0.98;;
7605;SDS011;3844;53.360;9.738;2023-03-16T11:31:43;4.97;;;1.00;;
7605;SDS011;3844;53.360;9.738;2023-03-16T11:33:52;3.97;;;0.77;;
7605;SDS011;3844;53.360;9.738;2023-03-16T11:38:20;3.85;;;0.90;;
7605;SDS011;3844;53.360;9.738;2023-03-16T11:43:00;4.50;;;1.08;;
7605;SDS011;3844;53.360;9.738;2023-03-16T11:46:01;4.07;;;0.90;;
7605;SDS011;3844;53.360;9.738;2023-03-16T11:50:22;3.88;;;0.80;;
7605;SDS011;3844;53.360;9.738;2023-03-16T11:52:32;5.93;;;1.00;;
7605;SDS011;3844;53.360;9.738;2023-03-16T11:57:25;5.25;;;0.80;;
7605;SDS011;3844;53.360;9.738;2023-03-16T11:59:51;3.70;;;0.82;;
7605;SDS011;3844;53.360;9.738;2023-03-16T12:07:56;4.05;;;1.00;;
7605;SDS011;3844;53.360;9.738;2023-03-16T12:12:25;2.67;;;0.82;;
7605;SDS011;3844;53.360;9.738;2023-03-16T12:14:29;3.35;;;0.68;;
7605;SDS011;3844;53.360;9.738;2023-03-16T12:18:57;4.03;;;0.90;;
7605;SDS011;3844;53.360;9.738;2023-03-16T12:21:01;6.10;;;1.17;;
7605;SDS011;3844;53.360;9.738;2023-03-16T12:23:12;5.25;;;1.10;;
7605;SDS011;3844;53.360;9.738;2023-03-16T12:25:22;3.70;;;0.90;;
7605;SDS011;3844;53.360;9.738;2023-03-16T12:27:33;4.68;;;1.00;;
7605;SDS011;3844;53.360;9.738;2023-03-16T12:29:40;4.88;;;1.02;;
7605;SDS011;3844;53.360;9.738;2023-03-16T12:32:02;4.00;;;0.90;;
7605;SDS011;3844;53.360;9.738;2023-03-16T12:34:25;4.97;;;1.17;;
7605;SDS011;3844;53.360;9.738;2023-03-16T12:36:37;4.72;;;0.90;;
7605;SDS011;3844;53.360;9.738;2023-03-16T12:44:31;4.30;;;0.98;;
7605;SDS011;3844;53.360;9.738;2023-03-16T12:46:58;4.80;;;0.90;;
7605;SDS011;3844;53.360;9.738;2023-03-16T12:49:01;4.03;;;0.90;;
7605;SDS011;3844;53.360;9.738;2023-03-16T12:51:04;3.22;;;0.73;;
7605;SDS011;3844;53.360;9.738;2023-03-16T12:53:05;4.80;;;0.85;;
7605;SDS011;3844;53.360;9.738;2023-03-16T12:57:06;3.17;;;0.77;;
7605;SDS011;3844;53.360;9.738;2023-03-16T12:59:14;3.58;;;0.80;;
7605;SDS011;3844;53.360;9.738;2023-03-16T13:01:29;5.63;;;0.90;;
7605;SDS011;3844;53.360;9.738;2023-03-16T13:03:39;5.00;;;1.00;;
7605;SDS011;3844;53.360;9.738;2023-03-16T13:05:44;4.43;;;0.90;;
7605;SDS011;3844;53.360;9.738;2023-03-16T13:08:02;3.42;;;0.88;;
7605;SDS011;3844;53.360;9.738;2023-03-16T13:10:07;5.20;;;0.90;;
7605;SDS011;3844;53.360;9.738;2023-03-16T13:12:27;3.75;;;0.70;;
7605;SDS011;3844;53.360;9.738;2023-03-16T13:14:40;3.88;;;0.80;;
7605;SDS011;3844;53.360;9.738;2023-03-16T13:16:43;4.38;;;0.80;;
7605;SDS011;3844;53.360;9.738;2023-03-16T13:18:44;4.75;;;0.88;;
7605;SDS011;3844;53.360;9.738;2023-03-16T13:20:49;3.20;;;0.82;;
7605;SDS011;3844;53.360;9.738;2023-03-16T13:25:20;4.30;;;0.80;;
7605;SDS011;3844;53.360;9.738;2023-03-16T13:27:29;3.40;;;0.80;;
7605;SDS011;3844;53.360;9.738;2023-03-16T13:29:33;4.88;;;0.80;;
7605;SDS011;3844;53.360;9.738;2023-03-16T13:31:39;3.67;;;0.80;;
7605;SDS011;3844;53.360;9.738;2023-03-16T13:33:40;3.03;;;0.70;;
7605;SDS011;3844;53.360;9.738;2023-03-16T13:35:41;4.82;;;0.90;;
7605;SDS011;3844;53.360;9.738;2023-03-16T13:37:42;3.42;;;0.77;;
7605;SDS011;3844;53.360;9.738;2023-03-16T13:39:51;3.25;;;0.70;;
7605;SDS011;3844;53.360;9.738;2023-03-16T13:42:10;4.00;;;0.80;;
7605;SDS011;3844;53.360;9.738;2023-03-16T13:44:16;4.25;;;0.80;;
7605;SDS011;3844;53.360;9.738;2023-03-16T13:46:18;4.20;;;0.90;;
7605;SDS011;3844;53.360;9.738;2023-03-16T13:50:22;3.30;;;0.80;;
7605;SDS011;3844;53.360;9.738;2023-03-16T13:52:32;3.03;;;0.70;;
7605;SDS011;3844;53.360;9.738;2023-03-16T13:54:35;4.15;;;0.90;;
7605;SDS011;3844;53.360;9.738;2023-03-16T13:56:36;3.75;;;0.80;;